CheckWX is a tool to help pilots better visualize weather data.  It is not intended as a substitute for an official pre-flight weather briefing.

04:19:49 UTC

KGAI METAR
Montgomery County Airpark
Gaithersburg, Maryland, USA
Current

24 mins ago

KGAI 270356Z AUTO 00000KT 7SM CLR 22/19 A3013 RMK AO2 SLP210 T02170194 PNO $
Observed
Jun-27 @ 03:56 UTC
Visibility
7 SM
Flight Rules
VFR
Cloud Levels
  • Clear skies
Temperature
22°C / 72°F
Dewpoint
19°C / 66°F
Humidity
83%
Altimeter
30.13" Hg
Pressure
1020.32 hPa
Previous

1 hour ago

KGAI 270256Z AUTO 00000KT 10SM FEW065 23/19 A3012 RMK AO2 SLP206 6//// T02280194 53013 PNO $
Observed
Jun-27 @ 02:56 UTC
Visibility
10 SM
Flight Rules
VFR
Cloud Levels
  • Few at 6,500' AGL
Temperature
23°C / 73°F
Dewpoint
19°C / 66°F
Humidity
78%
Altimeter
30.12" Hg
Pressure
1020.02 hPa
Previous

2 hours ago

KGAI 270156Z AUTO 00000KT 10SM SCT070 22/20 A3010 RMK AO2 SLP200 T02220200 PNO $
Observed
Jun-27 @ 01:56 UTC
Visibility
10 SM
Flight Rules
VFR
Cloud Levels
  • Scattered at 7,000' AGL
Temperature
22°C / 72°F
Dewpoint
20°C / 68°F
Humidity
88%
Altimeter
30.1" Hg
Pressure
1019.32 hPa